createdAt,value
2019-04-26T00:05:38.697Z,14.10
2019-04-26T00:15:40.013Z,14.80
2019-04-26T00:25:41.333Z,15.10
2019-04-26T00:35:47.715Z,15.40
2019-04-26T00:45:43.949Z,15.30
2019-04-26T00:55:45.228Z,15.50
2019-04-26T01:05:46.507Z,16.00
2019-04-26T02:16:31.170Z,14.00
2019-04-26T02:26:32.503Z,13.70
2019-04-26T02:36:53.017Z,13.50
2019-04-26T02:46:35.784Z,13.40
2019-04-26T02:56:37.646Z,13.40
2019-04-26T03:06:39.119Z,13.40
2019-04-26T03:16:40.764Z,13.30
2019-04-26T03:26:41.585Z,13.30
2019-04-26T03:36:44.264Z,13.10
2019-04-26T03:46:45.293Z,13.00
2019-04-26T03:56:45.502Z,13.00
2019-04-26T04:07:02.459Z,12.90
2019-04-26T04:16:48.901Z,13.00
2019-04-26T04:26:49.911Z,13.40
2019-04-26T04:36:52.888Z,13.40
2019-04-26T04:46:53.984Z,13.40
2019-04-26T04:56:53.872Z,13.40
2019-04-26T05:06:55.165Z,13.50
2019-04-26T05:16:57.197Z,13.40
2019-04-26T07:20:04.450Z,15.40
2019-04-26T07:30:05.226Z,15.80
2019-04-26T07:40:07.027Z,15.80
2019-04-26T07:50:07.705Z,16.10
2019-04-26T08:00:08.950Z,16.40
2019-04-26T08:10:10.970Z,17.00
2019-04-26T08:20:14.025Z,17.40
2019-04-26T08:30:17.032Z,17.30
2019-04-26T08:40:23.068Z,17.70
2019-04-26T08:50:17.763Z,18.40
2019-04-26T09:00:19.033Z,18.30
2019-04-26T09:10:20.311Z,19.40
2019-04-26T09:20:28.732Z,20.10
2019-04-26T09:30:33.253Z,21.40
2019-04-26T09:40:24.243Z,23.70
2019-04-26T09:50:25.501Z,27.60
2019-04-26T10:00:26.753Z,29.10
2019-04-26T10:10:31.054Z,25.00
2019-04-26T10:20:30.114Z,25.00
2019-04-26T10:30:31.396Z,23.90
2019-04-26T10:40:35.582Z,23.30
2019-04-26T10:50:34.450Z,23.40
2019-04-26T11:00:35.319Z,23.60
2019-04-26T11:10:47.875Z,23.50
2019-04-26T11:20:41.380Z,23.60
2019-04-26T11:30:39.983Z,23.50
2019-04-26T11:40:44.319Z,23.50
2019-04-26T11:50:42.542Z,23.30
2019-04-26T12:00:44.586Z,24.50
2019-04-26T12:10:46.409Z,24.50
2019-04-26T12:20:47.691Z,24.50
2019-04-26T12:30:48.974Z,23.80
2019-04-26T12:40:50.264Z,23.60
2019-04-26T12:50:53.593Z,23.50
2019-04-26T13:00:55.654Z,23.50
2019-04-26T13:10:56.945Z,23.50
2019-04-26T13:20:58.577Z,23.20
2019-04-26T13:31:02.199Z,23.40
2019-04-26T13:41:04.340Z,23.50
2019-04-26T13:51:05.699Z,23.80
2019-04-26T14:01:06.403Z,22.70
2019-04-26T14:11:07.684Z,22.60
2019-04-26T14:21:08.958Z,22.00
2019-04-26T14:31:12.178Z,22.50
2019-04-26T14:41:13.553Z,22.50
2019-04-26T14:51:16.824Z,22.90
2019-04-26T15:01:15.055Z,22.90
2019-04-26T15:11:16.317Z,22.80
2019-04-26T15:21:17.565Z,23.10
2019-04-26T15:51:34.026Z,22.30
2019-04-26T16:01:36.070Z,22.00
2019-04-26T16:11:37.430Z,22.00
2019-04-26T16:41:53.605Z,20.90
2019-04-26T16:52:02.137Z,20.60
2019-04-26T17:02:01.496Z,20.50
2019-04-26T17:32:13.880Z,19.60
2019-04-26T17:42:13.727Z,19.10
2019-04-26T17:52:17.862Z,18.50
2019-04-26T18:02:38.735Z,18.30
2019-04-26T18:12:24.782Z,18.20
2019-04-26T18:22:28.350Z,18.30
2019-04-26T18:32:28.123Z,18.00
2019-04-26T18:42:29.430Z,17.70
2019-04-26T18:52:30.728Z,17.50
2019-04-26T19:02:33.324Z,17.10
2019-04-26T19:12:34.153Z,16.30
2019-04-26T19:22:35.457Z,16.30
2019-04-26T19:32:39.652Z,16.20
2019-04-26T19:42:42.503Z,16.20
2019-04-26T19:52:45.031Z,15.80
2019-04-26T20:02:44.406Z,15.70
2019-04-26T20:12:45.701Z,15.50
2019-04-26T20:22:46.985Z,15.20
2019-04-26T20:32:48.271Z,15.20
2019-04-26T20:42:51.159Z,15.10
2019-04-26T20:52:54.018Z,15.00
2019-04-26T21:33:16.126Z,14.10
2019-04-26T21:43:17.404Z,14.00
2019-04-26T21:53:18.689Z,13.90
2019-04-26T22:13:27.734Z,13.90
2019-04-26T22:23:29.028Z,15.00
2019-04-26T22:33:30.955Z,14.90
2019-04-26T22:43:31.615Z,14.60
2019-04-26T22:53:32.909Z,14.60
2019-04-26T23:03:36.515Z,14.30
2019-04-26T23:13:37.804Z,14.30
2019-04-26T23:23:40.968Z,14.20
